Data for 08/29/2006

Time Sea-Level Adjusted Pressure Absolute Pressure Temperature Relative Humidity Dew Point   
(mb) (inHg) (mb) (inHg) (C) (F) (%) (C) (F)
00:05 1018 30.06 847 25.01 19.7 67.5 33 3.3 37.9
00:10 1018 30.06 847 25.01 19.5 67 33 3 37.4
00:15 1018 30.06 847 25.01 19.7 67.4 33 3 37.4
00:20 1018 30.06 847 25.01 19.7 67.5 33 3.1 37.5
00:25 1018 30.06 847 25.01 19.6 67.2 34 3.3 38
00:30 1018 30.06 847 25.01 19.5 67.1 33 3.1 37.6
00:35 1018 30.06 847 25.01 19.5 67.1 33 3.1 37.6
00:40 1018 30.06 847 25.01 19.4 66.9 33 3 37.4
00:45 1018 30.06 847 25.01 19.4 66.8 34 3.1 37.6
00:50 1018 30.06 847 25.01 19.1 66.4 34 3.1 37.5
00:55 1018 30.06 847 25.01 19 66.2 34 3 37.5
01:00 1018 30.06 847 25.01 19 66.3 34 2.8 37.1
01:05 1018 30.06 847 25.01 19 66.3 34 2.8 37
01:10 1018 30.06 847 25.01 18.9 66.1 34 2.8 37
01:15 1018 30.06 847 25.01 18.8 65.8 34 2.8 37.1
01:20 1017 30.03 847 25.01 18.8 65.9 34 2.6 36.7
01:25 1017 30.03 847 25.01 18.7 65.7 34 2.5 36.5
01:30 1017 30.03 847 25.01 18.7 65.7 33 2.4 36.3
01:35 1017 30.03 847 25.01 18.6 65.5 33 2.3 36.2
01:40 1017 30.03 847 25.01 18.5 65.2 34 2.4 36.4
01:45 1017 30.03 847 25.01 18.2 64.7 34 2.2 36
01:50 1017 30.03 846 24.98 18.1 64.6 34 2.1 35.8
01:55 1017 30.03 846 24.98 18.1 64.5 34 1.9 35.5
02:00 1017 30.03 846 24.98 18.2 64.7 33 1.9 35.4
02:05 1017 30.03 846 24.98 18.1 64.6 33 1.6 34.9
02:10 1017 30.03 846 24.98 18.3 65 32 1.5 34.6
02:15 1017 30.03 846 24.98 18.4 65.2 31 1.2 34.2
02:20 1017 30.03 846 24.98 18.4 65.2 31 1.3 34.4
02:25 1017 30.03 846 24.98 18.3 64.9 32 1.2 34.2
02:30 1017 30.03 846 24.98 18 64.5 32 1.1 33.9
02:35 1017 30.03 846 24.98 18.1 64.6 31 0.9 33.7
02:40 1017 30.03 846 24.98 18.2 64.7 31 0.9 33.6
02:45 1017 30.03 846 24.98 18.2 64.8 31 0.9 33.7
02:50 1017 30.03 846 24.98 18.4 65.2 30 0.5 33
02:55 1017 30.03 846 24.98 18.3 65 30 0.8 33.4
03:00 1017 30.03 846 24.98 18.3 64.9 30 0.5 32.8
03:05 1017 30.03 846 24.98 18.3 65 30 0.7 33.3
03:10 1017 30.03 846 24.98 18.3 64.9 30 0.4 32.7
03:15 1017 30.03 846 24.98 18.2 64.8 31 0.9 33.6
03:20 1017 30.03 846 24.98 17.6 63.6 31 0.4 32.8
03:25 1017 30.03 846 24.98 17.2 63 31 0.3 32.5
03:30 1017 30.03 846 24.98 17.3 63.2 31 0.3 32.5
03:35 1017 30.03 846 24.98 17.6 63.6 30 -0.1 31.9
03:40 1017 30.03 846 24.98 18 64.5 29 0.1 32.2
03:45 1017 30.03 846 24.98 18 64.4 30 0.2 32.3
03:50 1017 30.03 846 24.98 18.1 64.6 29 0.1 32.3
03:55 1017 30.03 846 24.98 18 64.3 30 0.2 32.4
04:00 1017 30.03 846 24.98 17.9 64.2 30 0.2 32.3
04:05 1017 30.03 846 24.98 17.7 63.9 30 0.2 32.3
04:10 1017 30.03 846 24.98 17.6 63.7 30 0.1 32.2
04:15 1017 30.03 846 24.98 17.6 63.6 31 0.1 32.3
04:20 1017 30.03 846 24.98 17.9 64.2 29 -0.1 31.8
04:25 1017 30.03 846 24.98 18.1 64.5 30 0.2 32.4
04:30 1017 30.03 846 24.98 18 64.3 30 0.3 32.5
04:35 1017 30.03 846 24.98 17.9 64.3 30 0.1 32.3
04:40 1017 30.03 846 24.98 18.1 64.6 29 0 32.1
04:45 1017 30.03 846 24.98 18 64.4 30 0.3 32.5
04:50 1017 30.03 846 24.98 17.8 64 30 0.1 32.2
04:55 1017 30.03 846 24.98 17.5 63.6 31 0.2 32.3
05:00 1017 30.03 846 24.98 17.2 63 32 0.3 32.6
05:05 1017 30.03 846 24.98 17.2 63 31 -0 32
05:10 1017 30.03 846 24.98 17.3 63.2 31 0.3 32.5
05:15 1017 30.03 846 24.98 17.4 63.2 31 0.2 32.4
05:20 1017 30.03 846 24.98 17.4 63.4 31 0.1 32.2
05:25 1017 30.03 846 24.98 17.4 63.4 31 0.3 32.5
05:30 1017 30.03 846 24.98 17.5 63.4 31 0.2 32.3
05:35 1017 30.03 846 24.98 17.6 63.7 31 0.2 32.4
05:40 1017 30.03 846 24.98 17.5 63.6 31 0.3 32.6
05:45 1017 30.03 846 24.98 17.3 63.1 31 0.1 32.2
05:50 1017 30.03 846 24.98 17.3 63.1 32 0.4 32.7
05:55 1016 30 846 24.98 17 62.7 32 0.5 32.8
06:00 1016 30 846 24.98 17.1 62.7 32 0.3 32.5
06:05 1016 30 846 24.98 17.4 63.2 31 0 32.1
06:10 1016 30 846 24.98 17.7 63.8 31 0.5 32.8
06:15 1016 30 846 24.98 17.6 63.7 31 0.3 32.6
06:20 1016 30 845 24.95 17.6 63.6 31 0.4 32.8
06:25 1016 30 845 24.95 17.5 63.6 33 1.1 34
06:30 1016 30 845 24.95 17.5 63.5 31 0.4 32.7
06:35 1016 30 845 24.95 17.4 63.4 31 0.4 32.8
06:40 1016 30 845 24.95 17.6 63.6 31 0.4 32.7
06:45 1016 30 845 24.95 17.7 63.9 30 0.2 32.4
06:50 1016 30 845 24.95 17.8 64 30 0.2 32.4
06:55 1016 30 845 24.95 17.9 64.2 30 0.3 32.5
07:00 1016 30 845 24.95 18.1 64.5 30 0.5 32.8
07:05 1016 30 845 24.95 17.9 64.2 32 0.9 33.7
07:10 1016 30 845 24.95 17.6 63.7 32 0.7 33.2
07:15 1016 30 845 24.95 17.8 64 31 0.6 33
07:20 1016 30 845 24.95 18 64.4 31 0.6 33
07:25 1016 30 845 24.95 18.3 64.9 30 0.5 33
07:30 1016 30 845 24.95 18.4 65.2 30 0.7 33.2
07:35 1016 30 845 24.95 18.7 65.6 29 0.6 33.2
07:40 1016 30 845 24.95 18.9 65.9 29 0.7 33.2
07:45 1016 30 845 24.95 19 66.2 29 0.9 33.7
07:50 1016 30 845 24.95 19 66.3 29 0.9 33.7
07:55 1016 30 845 24.95 19 66.3 30 1.1 34.1
08:00 1016 30 845 24.95 18.9 66.1 30 1.3 34.3
08:05 1016 30 845 24.95 19 66.3 30 1.2 34.2
08:10 1016 30 845 24.95 19.3 66.7 30 1.3 34.3
08:15 1016 30 845 24.95 19.5 67.1 29 1.3 34.3
08:20 1016 30 845 24.95 19.8 67.6 29 1.5 34.6
08:25 1016 30 845 24.95 20 68 29 1.8 35.2
08:30 1016 30 845 24.95 20.2 68.4 29 1.8 35.2
08:35 1016 30 845 24.95 20.5 68.9 28 1.7 35.1
08:40 1016 30 845 24.95 20.7 69.3 28 1.9 35.4
08:45 1016 30 845 24.95 20.9 69.5 29 2.3 36.2
08:50 1016 30 845 24.95 21.2 70.2 29 2.8 37
08:55 1016 30 845 24.95 21.7 71.1 27 2 35.6
09:00 1016 30 845 24.95 22.1 71.7 26 2.1 35.7
09:05 1016 30 845 24.95 22.4 72.3 26 2 35.6
09:10 1016 30 845 24.95 22.8 73.1 26 2.4 36.4
09:15 1016 30 845 24.95 23.2 73.7 25 2.2 35.9
09:20 1016 30 845 24.95 23.4 74.1 25 2.4 36.3
09:25 1016 30 845 24.95 23.6 74.6 24 1.9 35.4
09:30 1016 30 845 24.95 23.6 74.6 24 2.2 35.9
09:35 1016 30 845 24.95 23.6 74.5 24 2 35.5
09:40 1016 30 845 24.95 23.8 74.8 24 1.9 35.5
09:45 1016 30 845 24.95 24.1 75.4 24 2.3 36.2
09:50 1016 30 845 24.95 24.5 76.1 23 2.5 36.5
09:55 1016 30 845 24.95 24.8 76.7 22 1.8 35.3
10:00 1016 30 845 24.95 24.8 76.7 23 2.8 37.1
10:05 1016 30 845 24.95 25.4 77.8 22 2.3 36.1
10:10 1016 30 845 24.95 25.9 78.6 22 2.7 36.9
10:15 1016 30 845 24.95 26.4 79.4 24 4.5 40.1
10:20 1016 30 845 24.95 26.4 79.6 23 3.6 38.5
10:25 1016 30 845 24.95 25.7 78.3 25 4.5 40.1
10:30 1016 30 845 24.95 25.6 78 25 4.3 39.8
10:35 1016 30 845 24.95 25.3 77.5 25 4.3 39.7
10:40 1016 30 845 24.95 25.3 77.5 25 3.9 39.1
10:45 1016 30 845 24.95 25.9 78.7 22 2.8 37
10:50 1016 30 845 24.95 26.3 79.3 22 2.9 37.2
10:55 1016 30 845 24.95 26.5 79.8 21 2.6 36.7
11:00 1016 30 845 24.95 27.3 81.1 20 3 37.4
11:05 1016 30 845 24.95 28.6 83.5 18 2.1 35.8
11:10 1016 30 845 24.95 29.1 84.3 17 1.8 35.3
11:15 1015 29.97 845 24.95 28.7 83.6 18 2.1 35.8
11:20 1015 29.97 845 24.95 28.1 82.6 18 1.8 35.2
11:25 1015 29.97 845 24.95 28.2 82.7 19 2.9 37.2
11:30 1015 29.97 844 24.92 27.7 81.8 18 1.6 35
11:35 1015 29.97 844 24.92 26.7 80 19 1.3 34.3
11:40 1015 29.97 844 24.92 27.3 81.1 17 0.5 32.9
11:45 1015 29.97 844 24.92 28 82.5 17 1.3 34.4
11:50 1015 29.97 844 24.92 28.7 83.6 16 0.7 33.3
11:55 1015 29.97 844 24.92 29.6 85.3 16 1.3 34.3
12:00 1015 29.97 844 24.92 30.6 87.1 15 1.1 34
12:05 1015 29.97 844 24.92 31.1 87.9 15 1.6 34.9
12:10 1015 29.97 844 24.92 30.3 86.6 15 1.4 34.6
12:15 1015 29.97 844 24.92 29.7 85.4 18 3 37.4
12:20 1015 29.97 844 24.92 29.5 85 18 3 37.4
12:25 1015 29.97 844 24.92 28.8 83.8 17 1.7 35
12:30 1015 29.97 844 24.92 28.5 83.3 17 1.1 34
12:35 1014 29.94 844 24.92 28.2 82.8 16 0.4 32.7
12:40 1014 29.94 844 24.92 28.2 82.7 18 2.3 36.1
12:45 1014 29.94 843 24.89 28 82.5 16 0.4 32.7
12:50 1014 29.94 843 24.89 28.3 83 17 1 33.8
12:55 1014 29.94 843 24.89 28.5 83.3 14 -1 30.2
13:00 1014 29.94 843 24.89 29.2 84.6 14 -0.3 31.5
13:05 1014 29.94 843 24.89 29.1 84.3 16 0.9 33.6
13:10 1014 29.94 843 24.89 28.9 84.1 14 -0.8 30.6
13:15 1014 29.94 843 24.89 28.9 83.9 14 -1.2 29.8
13:20 1014 29.94 843 24.89 28.8 83.8 14 -0.7 30.7
13:25 1014 29.94 843 24.89 29.4 84.9 14 -0.9 30.4
13:30 1013 29.91 843 24.89 29.4 84.9 13 -1.6 29
13:35 1013 29.91 843 24.89 29.3 84.7 14 -0.5 31.1
13:40 1013 29.91 842 24.86 30.1 86.2 14 -0 32
13:45 1013 29.91 842 24.86 30 86 12 -1.8 28.7
13:50 1013 29.91 842 24.86 30.1 86.2 13 -0.9 30.3
13:55 1013 29.91 842 24.86 29.8 85.7 14 -0.6 30.9
14:00 1013 29.91 842 24.86 30.2 86.3 13 -0.5 31
14:05 1013 29.91 842 24.86 30.7 87.3 13 -0.6 31
14:10 1013 29.91 842 24.86 30.9 87.7 13 -0.6 30.9
14:15 1013 29.91 842 24.86 30.4 86.8 14 0.1 32.2
14:20 1013 29.91 842 24.86 30.2 86.3 14 -0.4 31.2
14:25 1013 29.91 842 24.86 30.1 86.2 14 -0.2 31.7
14:30 1013 29.91 842 24.86 30.4 86.6 13 -0.8 30.5
14:35 1013 29.91 842 24.86 30.3 86.5 13 -1.2 29.9
14:40 1012 29.88 842 24.86 30.2 86.4 14 0 32.1
14:45 1012 29.88 842 24.86 30.5 86.8 14 -0.1 31.9
14:50 1012 29.88 841 24.83 30.6 87.1 13 -0.7 30.7
14:55 1012 29.88 841 24.83 30.8 87.4 13 -0.7 30.7
15:00 1012 29.88 841 24.83 30.5 86.8 13 -0.8 30.6
15:05 1012 29.88 841 24.83 30.6 87 13 -1.1 30.1
15:10 1012 29.88 841 24.83 30.2 86.4 13 -1.2 29.9
15:15 1012 29.88 841 24.83 30.2 86.4 13 -0.8 30.6
15:20 1012 29.88 841 24.83 30.2 86.3 13 -0.9 30.3
15:25 1012 29.88 841 24.83 30.2 86.4 13 -0.8 30.6
15:30 1012 29.88 841 24.83 30.4 86.7 13 -1.3 29.7
15:35 1012 29.88 841 24.83 30.3 86.5 13 -0.6 30.9
15:40 1012 29.88 841 24.83 30.3 86.6 15 0.7 33.3
15:45 1011 29.85 841 24.83 30.1 86.2 14 -0.3 31.5
15:50 1011 29.85 841 24.83 30.1 86.2 13 -0.7 30.8
15:55 1011 29.85 841 24.83 29.9 85.8 13 -0.7 30.8
16:00 1011 29.85 841 24.83 30.1 86.3 14 -0.3 31.5
16:05 1011 29.85 841 24.83 30.6 87 13 -1 30.2
16:10 1011 29.85 841 24.83 30.4 86.8 14 0 32.1
16:15 1011 29.85 841 24.83 30.9 87.7 11 -2.1 28.3
16:20 1011 29.85 840 24.81 31.6 88.9 11 -2.3 27.8
16:25 1011 29.85 840 24.81 31.3 88.4 10 -4.2 24.4
16:30 1011 29.85 840 24.81 31.5 88.7 10 -3.7 25.3
16:35 1011 29.85 840 24.81 31.9 89.5 11 -2.1 28.3
16:40 1011 29.85 840 24.81 31.9 89.3 10 -3.2 26.3
16:45 1011 29.85 840 24.81 31.6 88.8 10 -2.8 27
16:50 1011 29.85 840 24.81 31.7 89.1 10 -4 24.9
16:55 1011 29.85 840 24.81 31.5 88.8 10 -3.2 26.2
17:00 1010 29.83 840 24.81 31.3 88.4 10 -3.1 26.4
17:05 1010 29.83 840 24.81 31.4 88.4 10 -3.9 25
17:10 1010 29.83 840 24.81 31.2 88.1 10 -4.2 24.4
17:15 1010 29.83 840 24.81 31.5 88.7 10 -3.3 26.1
17:20 1010 29.83 840 24.81 31.5 88.7 11 -1.8 28.8
17:25 1010 29.83 840 24.81 31.4 88.5 10 -3.8 25.1
17:30 1010 29.83 840 24.81 31.2 88.1 11 -2.6 27.3
17:35 1010 29.83 839 24.78 31.2 88.1 11 -2.7 27.2
17:40 1010 29.83 839 24.78 30.9 87.5 11 -2.6 27.3
17:45 1010 29.83 840 24.81 30.6 87 10 -3.6 25.5
17:50 1010 29.83 840 24.81 30.3 86.5 11 -3.4 25.9
17:55 1010 29.83 839 24.78 30.3 86.6 10 -3.8 25.1
18:00 1010 29.83 839 24.78 30.4 86.7 11 -2.7 27.1
18:05 1010 29.83 840 24.81 30.4 86.8 12 -2.2 28.1
18:10 1010 29.83 839 24.78 30.4 86.7 10 -4 24.8
18:15 1010 29.83 839 24.78 30.2 86.4 10 -4 24.7
18:20 1010 29.83 840 24.81 30.2 86.4 11 -3.4 26
18:25 1010 29.83 840 24.81 30.3 86.5 10 -3.9 25
18:30 1010 29.83 840 24.81 29.9 85.9 11 -3.6 25.5
18:35 1010 29.83 839 24.78 29.5 85.2 11 -3.8 25.1
18:40 1010 29.83 839 24.78 29.3 84.8 11 -3.6 25.6
18:45 1010 29.83 840 24.81 29.2 84.6 12 -3 26.6
18:50 1010 29.83 839 24.78 29.1 84.3 12 -2.9 26.7
18:55 1010 29.83 839 24.78 29.1 84.4 12 -3 26.6
19:00 1010 29.83 839 24.78 29.1 84.5 12 -2.9 26.7
19:05 1010 29.83 839 24.78 29.1 84.3 12 -3 26.7
19:10 1010 29.83 839 24.78 29.1 84.4 12 -2.9 26.9
19:15 1010 29.83 839 24.78 29.1 84.4 12 -3 26.5
19:20 1010 29.83 839 24.78 29.1 84.5 12 -2.8 27
19:25 1010 29.83 839 24.78 29 84.2 13 -2.3 27.9
19:30 1010 29.83 839 24.78 28.6 83.6 13 -2.1 28.2
19:35 1010 29.83 839 24.78 28.3 82.9 13 -2.4 27.7
19:40 1010 29.83 839 24.78 28.1 82.6 14 -2 28.5
19:45 1010 29.83 839 24.78 27.6 81.7 14 -2.1 28.2
19:50 1010 29.83 839 24.78 27.3 81.2 14 -2.1 28.2
19:55 1010 29.83 839 24.78 27.2 80.9 15 -1.9 28.7
20:00 1010 29.83 839 24.78 27.2 81 14 -2.3 27.9
20:05 1010 29.83 839 24.78 27.5 81.5 14 -2.2 28.1
20:10 1010 29.83 839 24.78 27.3 81.2 15 -1.7 29
20:15 1010 29.83 839 24.78 27.1 80.9 15 -1.9 28.6
20:20 1010 29.83 839 24.78 27 80.5 15 -1.4 29.4
20:25 1010 29.83 839 24.78 26.9 80.4 14 -2.3 27.9
20:30 1010 29.83 839 24.78 26.8 80.3 13 -3.4 25.9
20:35 1010 29.83 839 24.78 26.9 80.4 14 -2.4 27.7
20:40 1010 29.83 839 24.78 26.7 80.1 14 -2.8 26.9
20:45 1010 29.83 839 24.78 26.9 80.3 14 -2.9 26.8
20:50 1010 29.83 839 24.78 26.8 80.3 14 -2.8 26.9
20:55 1010 29.83 839 24.78 26.7 80 13 -3.6 25.5
21:00 1010 29.83 839 24.78 27.4 81.2 12 -4.1 24.6
21:05 1010 29.83 839 24.78 27.3 81.1 13 -3.4 25.8
21:10 1010 29.83 839 24.78 26.6 79.9 13 -3.7 25.4
21:15 1010 29.83 840 24.81 26.5 79.7 13 -3.9 25
21:20 1010 29.83 840 24.81 26.6 79.8 13 -3.9 24.9
21:25 1010 29.83 840 24.81 26.5 79.7 13 -4.3 24.2
21:30 1010 29.83 840 24.81 26.5 79.6 12 -4.5 23.9
21:35 1010 29.83 840 24.81 26.5 79.7 12 -4.8 23.3
21:40 1010 29.83 840 24.81 26.6 79.8 12 -4.5 23.9
21:45 1010 29.83 840 24.81 26.4 79.5 13 -4.4 24.1
21:50 1010 29.83 839 24.78 26.1 79 13 -4.1 24.5
21:55 1010 29.83 839 24.78 26 78.8 13 -4.3 24.2
22:00 1010 29.83 839 24.78 25.8 78.4 13 -4.4 24.1
22:05 1010 29.83 839 24.78 25.5 77.9 13 -4.4 24.1
22:10 1010 29.83 839 24.78 25.5 78 13 -4.7 23.6
22:15 1010 29.83 839 24.78 25.5 77.8 14 -4 24.8
22:20 1010 29.83 839 24.78 25.2 77.3 13 -4.5 24
22:25 1010 29.83 839 24.78 25.4 77.6 13 -4.6 23.7
22:30 1010 29.83 839 24.78 25.4 77.8 14 -4.1 24.7
22:35 1010 29.83 839 24.78 25.2 77.3 14 -4.3 24.3
22:40 1010 29.83 839 24.78 25.1 77.1 14 -4.4 24.1
22:45 1010 29.83 839 24.78 25.1 77.1 14 -4.2 24.4
22:50 1010 29.83 839 24.78 24.8 76.6 14 -4.7 23.6
22:55 1010 29.83 839 24.78 25.3 77.6 14 -4.1 24.7
23:00 1010 29.83 839 24.78 25 76.9 14 -4.5 23.9
23:05 1010 29.83 839 24.78 24.4 75.9 14 -4.3 24.2
23:10 1010 29.83 839 24.78 24.1 75.3 14 -4.5 24
23:15 1010 29.83 839 24.78 24.2 75.5 14 -4.7 23.6
23:20 1010 29.83 839 24.78 23.9 75.1 14 -4.7 23.5
23:25 1010 29.83 839 24.78 23.9 75.1 14 -4.8 23.4
23:30 1010 29.83 839 24.78 23.9 75 15 -4.3 24.2
23:35 1010 29.83 839 24.78 23.7 74.7 15 -4.4 24
23:40 1010 29.83 839 24.78 23.7 74.6 15 -4.4 24.1
23:45 1010 29.83 839 24.78 23.8 74.8 15 -4.5 23.9
23:50 1010 29.83 840 24.81 24 75.2 14 -4.7 23.6
23:55 1010 29.83 840 24.81 23.8 74.8 15 -4.3 24.3
24:00 1011 29.85 840 24.81 23.5 74.4 15 -4.3 24.3